world map with REY marked

REY - Airport

This information may not be accurate or current and is not valid for navigation or flight planning. No warranty of fitness for any purpose is made or implied.

flag of El Beniflag of Bolivia

Donate via PayPal

Additional information is available on the NEW Great Circle Mapper

Location
City:  Reyes, José Ballivián, El Beni, Bolivia
Name:Reyes Airport
ICAO / IATA:SLRY / REY

Details
Type:Airport (Aerodrome, Airfield)
Latitude:14°18'21"S (-14.305832)
Longitude:67°21'13"W (-67.353610)
Elevation:935 ft (285 m)
Runways:1
Longest:4593 ft (1400 m)

Time
Timezone:UTC+30:08 (DST+32:08)
Local Time:

Weather
METAR:SLRY  161800Z 34006KT 9999 BKN008 OVC080 26/24 Q1012

Related Locations
Nearby:
Farthest:ZJYX: 12255 mi / 19723 km
Yongxing Island [Yongxing Island Airport], Xisha Islands (Woody Island, Paracel Islands), 46, CN

Find:

   beyond  
but within

Other Information
Maps:
Sources:

  


 


Great Circle Mapper   Great Circle Mapper
Great Circle Mapper FAQ   Great Circle Mapper FAQ
  Karl's Home Page
KLS²   KLS² Home
   GC on Facebook
Airlines of the World   Airlines of the World
Donate via PayPal


Copyright © 2004-2019, Karl L. Swartz. All rights reserved.
All trademarks mentioned herein belong to their respective owners.

Please see credits for attribution and copyright information.

Karl Swartz <karl@kls2.com>
  Powered by FreeBSD
Valid HTML 4.01!
Labeled with ICRA
hCard Microformat
Geo Microformat